METAR Data
IDs: Format: Raw Decoded Include TAF

Data at: 1332 UTC 10 Aug 2022

KAVX 101251Z AUTO 13005KT 10SM CLR 21/10 A3002 RMK AO2 SLP135 T02110100
KAVX 101151Z AUTO 13005KT 10SM CLR 21/13 A3001 RMK AO2 SLP133 T02060128 10239 20206 55003
KAVX 101051Z AUTO 15005KT 10SM CLR 23/05 A3001 RMK AO2 SLP130 T02330050
KAVX 100951Z AUTO 11004KT 10SM CLR 23/06 A3002 RMK AO2 SLP132 T02330061
KAVX 100851Z AUTO 08006KT 10SM CLR 23/08 A3002 RMK AO2 SLP132 T02280078 57004
KAVX 100751Z AUTO 13003KT 10SM CLR 22/09 A3002 RMK AO2 SLP135 T02220094 402940217
KAVX 100651Z AUTO 07005KT 10SM CLR 23/06 A3003 RMK AO2 SLP137 T02330056
KAVX 100551Z AUTO 00000KT 10SM CLR 23/06 A3003 RMK AO2 SLP139 T02330061 10283 20217 51018
KAVX 100451Z AUTO 04003KT 10SM CLR 23/06 A3003 RMK AO2 SLP138 T02330061
KAVX 100351Z AUTO 00000KT 10SM CLR 23/08 A3000 RMK AO2 SLP128 T02330083
KAVX 100251Z AUTO 00000KT 10SM CLR 22/16 A2998 RMK AO2 SLP122 T02220156 53004
KAVX 100151Z AUTO 23003KT 10SM CLR 24/16 A2997 RMK AO2 SLP119 T02440156
KAVX 100051Z AUTO 22003KT 10SM CLR 27/13 A2996 RMK AO2 SLP113 T02670128
KAVX 092351Z AUTO 24008KT 10SM CLR 27/14 A2996 RMK AO2 SLP115 T02670139 10294 20261 56013
KAVX 092251Z AUTO 24008KT 10SM CLR 27/16 A2998 RMK AO2 SLP118 T02720156
KAVX 092151Z AUTO 24007KT 10SM CLR 27/17 A2999 RMK AO2 SLP121 T02720167
KAVX 092051Z AUTO VRB04KT 10SM CLR 29/18 A3000 RMK AO2 SLP126 T02890178 58005
KAVX 091951Z AUTO VRB03KT 10SM CLR 28/17 A3002 RMK AO2 SLP131 T02830172
KAVX 091851Z AUTO 26006KT 10SM CLR 27/17 A3002 RMK AO2 SLP135 T02670172
KAVX 091751Z AUTO VRB04KT 10SM CLR 27/18 A3002 RMK AO2 SLP134 T02670183 10283 20228 51008
KAVX 091651Z AUTO 25007KT 10SM CLR 24/18 A3001 RMK AO2 SLP133 T02440178
KAVX 091551Z AUTO 00000KT 10SM CLR 26/17 A3001 RMK AO2 SLP130 T02610172
KAVX 091451Z AUTO 14003KT 10SM CLR 25/10 A2999 RMK AO2 SLP126 T02500100 53012
KAVX 091351Z AUTO 17003KT 10SM CLR 23/06 A2998 RMK AO2 SLP122 T02330056
KAVX 091251Z AUTO 14003KT 10SM CLR 25/04 A2996 RMK AO2 SLP114 T02500044
KAVX 091151Z AUTO 12005KT 10SM CLR 24/01 A2996 RMK AO2 SLP110 T02440011 10256 20222 55002
KAVX 091051Z AUTO 15004KT 10SM CLR 25/M01 A2996 RMK AO2 SLP110 T02501011
KAVX 090951Z AUTO 17003KT 10SM CLR 25/04 A2996 RMK AO2 SLP112 T02500044
KAVX 090851Z AUTO 14004KT 10SM CLR 24/05 A2996 RMK AO2 SLP113 T02440050 58007
KAVX 090751Z AUTO 14004KT 10SM CLR 24/06 A2998 RMK AO2 SLP120 T02390061 402940222
KAVX 090651Z AUTO 14005KT 10SM CLR 23/13 A3000 RMK AO2 SLP127 T02280128
KAVX 090551Z AUTO 06004KT 10SM CLR 24/14 A2999 RMK AO2 SLP121 T02390144 10278 20222 50007
KAVX 090451Z AUTO 13003KT 10SM CLR 25/14 A2999 RMK AO2 SLP122 T02500144
KAVX 090351Z AUTO 10003KT 10SM CLR 22/17 A2998 RMK AO2 SLP121 T02220167
KAVX 090251Z AUTO 00000KT 10SM CLR 24/17 A2996 RMK AO2 SLP114 T02440167 53005
KAVX 090151Z AUTO 30004KT 10SM CLR 26/16 A2994 RMK AO2 SLP108 T02610161